Terminal Aerodrome Forecast
Issued by NWS Wakefield, VA

Home | Current Version | Previous Version | Text Only | Print | Product List | Glossary On
Versions: 1 2 3 4 5 6 7 8 9 10 11 12 13 14 15 16 17 18 19 20
153
FTUS41 KAKQ 041139
TAFECG
TAF
KECG 041139Z 0412/0512 05011KT 2SM BR OVC002
     FM041300 04008KT 3SM BR OVC004
     FM041500 04008KT P6SM BKN015
     FM041800 VRB04KT P6SM BKN050
     FM050400 03004KT P6SM OVC015=

USA.gov is the U.S. government's official web portal to all federal, state and local government web resources and services.